sensor_id;sensor_type;location;lat;lon;timestamp;P1;durP1;ratioP1;P2;durP2;ratioP2
57441;SDS011;43284;47.042;15.498;2022-09-29T00:00:58;6.60;;;5.43;;
57441;SDS011;43284;47.042;15.498;2022-09-29T00:03:27;7.95;;;5.30;;
57441;SDS011;43284;47.042;15.498;2022-09-29T00:05:54;13.70;;;6.85;;
57441;SDS011;43284;47.042;15.498;2022-09-29T00:08:24;11.52;;;7.05;;
57441;SDS011;43284;47.042;15.498;2022-09-29T00:10:52;11.98;;;6.65;;
57441;SDS011;43284;47.042;15.498;2022-09-29T00:13:20;10.77;;;6.70;;
57441;SDS011;43284;47.042;15.498;2022-09-29T00:15:54;10.20;;;6.72;;
57441;SDS011;43284;47.042;15.498;2022-09-29T00:18:23;13.85;;;7.38;;
57441;SDS011;43284;47.042;15.498;2022-09-29T00:23:30;10.60;;;6.40;;
57441;SDS011;43284;47.042;15.498;2022-09-29T00:26:06;13.02;;;7.90;;
57441;SDS011;43284;47.042;15.498;2022-09-29T00:28:46;19.70;;;8.52;;
57441;SDS011;43284;47.042;15.498;2022-09-29T00:31:20;15.98;;;8.85;;
57441;SDS011;43284;47.042;15.498;2022-09-29T00:33:48;13.68;;;7.95;;
57441;SDS011;43284;47.042;15.498;2022-09-29T00:36:17;16.35;;;8.65;;
57441;SDS011;43284;47.042;15.498;2022-09-29T00:38:45;49.33;;;18.45;;
57441;SDS011;43284;47.042;15.498;2022-09-29T00:41:15;21.33;;;10.30;;
57441;SDS011;43284;47.042;15.498;2022-09-29T00:43:51;16.50;;;10.27;;
57441;SDS011;43284;47.042;15.498;2022-09-29T00:46:24;16.58;;;8.80;;
57441;SDS011;43284;47.042;15.498;2022-09-29T00:49:16;14.70;;;8.90;;
57441;SDS011;43284;47.042;15.498;2022-09-29T00:51:54;13.90;;;7.80;;
57441;SDS011;43284;47.042;15.498;2022-09-29T00:54:24;19.00;;;8.98;;
57441;SDS011;43284;47.042;15.498;2022-09-29T00:56:55;14.35;;;8.13;;
57441;SDS011;43284;47.042;15.498;2022-09-29T00:59:26;19.98;;;8.70;;
57441;SDS011;43284;47.042;15.498;2022-09-29T01:02:08;17.35;;;8.80;;
57441;SDS011;43284;47.042;15.498;2022-09-29T01:04:35;14.98;;;9.15;;
57441;SDS011;43284;47.042;15.498;2022-09-29T01:07:03;16.55;;;8.95;;
57441;SDS011;43284;47.042;15.498;2022-09-29T01:09:32;12.38;;;8.48;;
57441;SDS011;43284;47.042;15.498;2022-09-29T01:12:03;14.05;;;8.70;;
57441;SDS011;43284;47.042;15.498;2022-09-29T01:14:32;18.40;;;9.35;;
57441;SDS011;43284;47.042;15.498;2022-09-29T01:17:03;17.85;;;9.27;;
57441;SDS011;43284;47.042;15.498;2022-09-29T01:19:38;15.65;;;9.32;;
57441;SDS011;43284;47.042;15.498;2022-09-29T01:34:29;18.55;;;7.82;;
57441;SDS011;43284;47.042;15.498;2022-09-29T01:38:06;10.52;;;7.22;;
57441;SDS011;43284;47.042;15.498;2022-09-29T01:40:17;7.35;;;5.47;;
57441;SDS011;43284;47.042;15.498;2022-09-29T01:43:09;7.03;;;5.07;;
57441;SDS011;43284;47.042;15.498;2022-09-29T01:45:48;11.02;;;5.38;;
57441;SDS011;43284;47.042;15.498;2022-09-29T01:48:26;9.70;;;5.18;;
57441;SDS011;43284;47.042;15.498;2022-09-29T01:53:32;6.63;;;4.43;;
57441;SDS011;43284;47.042;15.498;2022-09-29T01:56:07;4.55;;;3.78;;
57441;SDS011;43284;47.042;15.498;2022-09-29T01:58:57;7.40;;;3.97;;
57441;SDS011;43284;47.042;15.498;2022-09-29T02:01:33;6.65;;;3.30;;
57441;SDS011;43284;47.042;15.498;2022-09-29T02:04:07;7.32;;;2.45;;
57441;SDS011;43284;47.042;15.498;2022-09-29T02:06:50;2.88;;;2.00;;
57441;SDS011;43284;47.042;15.498;2022-09-29T02:09:33;2.78;;;2.30;;
57441;SDS011;43284;47.042;15.498;2022-09-29T02:12:09;3.78;;;2.25;;
57441;SDS011;43284;47.042;15.498;2022-09-29T02:14:41;2.92;;;1.90;;
57441;SDS011;43284;47.042;15.498;2022-09-29T02:17:18;1.88;;;1.60;;
57441;SDS011;43284;47.042;15.498;2022-09-29T02:19:52;2.97;;;1.85;;
57441;SDS011;43284;47.042;15.498;2022-09-29T02:22:22;2.63;;;1.88;;
57441;SDS011;43284;47.042;15.498;2022-09-29T02:24:51;3.15;;;1.70;;
57441;SDS011;43284;47.042;15.498;2022-09-29T02:27:21;2.97;;;2.00;;
57441;SDS011;43284;47.042;15.498;2022-09-29T02:29:49;5.13;;;1.80;;
57441;SDS011;43284;47.042;15.498;2022-09-29T02:32:17;2.40;;;1.33;;
57441;SDS011;43284;47.042;15.498;2022-09-29T02:34:46;1.65;;;1.40;;
57441;SDS011;43284;47.042;15.498;2022-09-29T02:40:14;3.42;;;1.50;;
57441;SDS011;43284;47.042;15.498;2022-09-29T02:43:11;4.65;;;1.60;;
57441;SDS011;43284;47.042;15.498;2022-09-29T02:46:09;2.05;;;1.30;;
57441;SDS011;43284;47.042;15.498;2022-09-29T02:51:45;1.80;;;1.10;;
57441;SDS011;43284;47.042;15.498;2022-09-29T02:57:13;3.42;;;0.90;;
57441;SDS011;43284;47.042;15.498;2022-09-29T03:00:09;3.03;;;1.10;;
57441;SDS011;43284;47.042;15.498;2022-09-29T03:02:40;1.13;;;0.70;;
57441;SDS011;43284;47.042;15.498;2022-09-29T03:05:10;1.23;;;0.60;;
57441;SDS011;43284;47.042;15.498;2022-09-29T03:07:39;1.00;;;0.70;;
57441;SDS011;43284;47.042;15.498;2022-09-29T03:10:08;1.67;;;0.70;;
57441;SDS011;43284;47.042;15.498;2022-09-29T03:12:36;3.17;;;0.85;;
57441;SDS011;43284;47.042;15.498;2022-09-29T03:15:03;1.80;;;0.80;;
57441;SDS011;43284;47.042;15.498;2022-09-29T03:17:32;2.97;;;0.80;;
57441;SDS011;43284;47.042;15.498;2022-09-29T03:20:00;1.80;;;0.80;;
57441;SDS011;43284;47.042;15.498;2022-09-29T03:22:28;2.70;;;0.88;;
57441;SDS011;43284;47.042;15.498;2022-09-29T03:24:55;1.92;;;0.80;;
57441;SDS011;43284;47.042;15.498;2022-09-29T03:27:24;1.23;;;0.77;;
57441;SDS011;43284;47.042;15.498;2022-09-29T03:29:52;1.92;;;0.60;;
57441;SDS011;43284;47.042;15.498;2022-09-29T03:32:19;2.00;;;0.45;;
57441;SDS011;43284;47.042;15.498;2022-09-29T03:34:51;0.93;;;0.50;;
57441;SDS011;43284;47.042;15.498;2022-09-29T03:37:19;1.20;;;0.70;;
57441;SDS011;43284;47.042;15.498;2022-09-29T03:39:46;1.17;;;0.70;;
57441;SDS011;43284;47.042;15.498;2022-09-29T03:42:13;3.22;;;0.63;;
57441;SDS011;43284;47.042;15.498;2022-09-29T03:44:43;0.80;;;0.77;;
57441;SDS011;43284;47.042;15.498;2022-09-29T03:47:11;1.20;;;0.63;;
57441;SDS011;43284;47.042;15.498;2022-09-29T03:49:42;1.17;;;0.77;;
57441;SDS011;43284;47.042;15.498;2022-09-29T03:52:11;1.38;;;0.70;;
57441;SDS011;43284;47.042;15.498;2022-09-29T03:54:40;4.63;;;2.63;;
57441;SDS011;43284;47.042;15.498;2022-09-29T03:57:07;1.83;;;1.50;;
57441;SDS011;43284;47.042;15.498;2022-09-29T03:59:34;0.80;;;0.70;;
57441;SDS011;43284;47.042;15.498;2022-09-29T04:02:01;1.17;;;0.70;;
57441;SDS011;43284;47.042;15.498;2022-09-29T04:04:30;0.65;;;0.65;;
57441;SDS011;43284;47.042;15.498;2022-09-29T04:06:58;5.10;;;0.70;;
57441;SDS011;43284;47.042;15.498;2022-09-29T04:09:25;1.48;;;1.38;;
57441;SDS011;43284;47.042;15.498;2022-09-29T04:11:53;0.90;;;0.80;;
57441;SDS011;43284;47.042;15.498;2022-09-29T04:14:20;1.83;;;1.30;;
57441;SDS011;43284;47.042;15.498;2022-09-29T04:16:47;1.92;;;1.48;;
57441;SDS011;43284;47.042;15.498;2022-09-29T04:19:15;2.40;;;1.92;;
57441;SDS011;43284;47.042;15.498;2022-09-29T04:21:45;2.20;;;2.00;;
57441;SDS011;43284;47.042;15.498;2022-09-29T04:24:13;1.80;;;1.70;;
57441;SDS011;43284;47.042;15.498;2022-09-29T04:26:40;1.40;;;1.30;;
57441;SDS011;43284;47.042;15.498;2022-09-29T04:29:08;3.72;;;3.42;;
57441;SDS011;43284;47.042;15.498;2022-09-29T04:31:39;3.05;;;1.40;;
57441;SDS011;43284;47.042;15.498;2022-09-29T04:34:07;1.05;;;0.95;;
57441;SDS011;43284;47.042;15.498;2022-09-29T04:36:35;2.65;;;1.88;;
57441;SDS011;43284;47.042;15.498;2022-09-29T04:39:02;1.20;;;1.10;;
57441;SDS011;43284;47.042;15.498;2022-09-29T04:41:30;1.50;;;0.90;;
57441;SDS011;43284;47.042;15.498;2022-09-29T04:44:00;1.00;;;1.00;;
57441;SDS011;43284;47.042;15.498;2022-09-29T04:46:28;3.17;;;1.63;;
57441;SDS011;43284;47.042;15.498;2022-09-29T04:48:56;2.67;;;1.20;;
57441;SDS011;43284;47.042;15.498;2022-09-29T04:51:27;1.67;;;0.80;;
57441;SDS011;43284;47.042;15.498;2022-09-29T04:53:56;2.03;;;1.00;;
57441;SDS011;43284;47.042;15.498;2022-09-29T04:56:24;1.85;;;1.00;;
57441;SDS011;43284;47.042;15.498;2022-09-29T04:58:59;1.00;;;0.93;;
57441;SDS011;43284;47.042;15.498;2022-09-29T05:01:26;1.00;;;0.70;;
57441;SDS011;43284;47.042;15.498;2022-09-29T05:03:55;0.68;;;0.68;;
57441;SDS011;43284;47.042;15.498;2022-09-29T05:06:22;5.15;;;0.82;;
57441;SDS011;43284;47.042;15.498;2022-09-29T05:08:50;1.30;;;0.95;;
57441;SDS011;43284;47.042;15.498;2022-09-29T05:11:17;0.98;;;0.90;;
57441;SDS011;43284;47.042;15.498;2022-09-29T05:13:47;4.43;;;2.35;;
57441;SDS011;43284;47.042;15.498;2022-09-29T05:16:16;1.58;;;0.82;;
57441;SDS011;43284;47.042;15.498;2022-09-29T05:18:45;2.63;;;1.00;;
57441;SDS011;43284;47.042;15.498;2022-09-29T05:21:13;5.80;;;1.20;;
57441;SDS011;43284;47.042;15.498;2022-09-29T05:23:40;4.10;;;0.90;;
57441;SDS011;43284;47.042;15.498;2022-09-29T05:26:08;1.23;;;0.80;;
57441;SDS011;43284;47.042;15.498;2022-09-29T05:28:37;1.90;;;0.70;;
57441;SDS011;43284;47.042;15.498;2022-09-29T05:31:10;3.13;;;1.05;;
57441;SDS011;43284;47.042;15.498;2022-09-29T05:33:37;0.63;;;0.60;;
57441;SDS011;43284;47.042;15.498;2022-09-29T05:36:05;2.65;;;0.80;;
57441;SDS011;43284;47.042;15.498;2022-09-29T05:38:35;1.67;;;0.77;;
57441;SDS011;43284;47.042;15.498;2022-09-29T05:41:04;1.60;;;0.60;;
57441;SDS011;43284;47.042;15.498;2022-09-29T05:43:34;1.70;;;0.63;;
57441;SDS011;43284;47.042;15.498;2022-09-29T05:46:04;1.85;;;0.73;;
57441;SDS011;43284;47.042;15.498;2022-09-29T05:48:33;1.10;;;0.60;;
57441;SDS011;43284;47.042;15.498;2022-09-29T05:51:11;3.78;;;1.08;;
57441;SDS011;43284;47.042;15.498;2022-09-29T05:53:40;2.35;;;0.57;;
57441;SDS011;43284;47.042;15.498;2022-09-29T05:56:09;1.13;;;0.77;;
57441;SDS011;43284;47.042;15.498;2022-09-29T05:58:39;2.67;;;0.90;;
57441;SDS011;43284;47.042;15.498;2022-09-29T06:01:07;1.88;;;0.95;;
57441;SDS011;43284;47.042;15.498;2022-09-29T06:03:36;1.45;;;0.65;;
57441;SDS011;43284;47.042;15.498;2022-09-29T06:06:08;1.50;;;0.50;;
57441;SDS011;43284;47.042;15.498;2022-09-29T06:08:46;2.35;;;0.60;;
57441;SDS011;43284;47.042;15.498;2022-09-29T06:11:15;2.33;;;0.65;;
57441;SDS011;43284;47.042;15.498;2022-09-29T06:16:17;3.10;;;0.63;;
57441;SDS011;43284;47.042;15.498;2022-09-29T06:18:46;1.10;;;0.60;;
57441;SDS011;43284;47.042;15.498;2022-09-29T06:21:15;2.35;;;0.80;;
57441;SDS011;43284;47.042;15.498;2022-09-29T06:23:44;2.03;;;0.70;;
57441;SDS011;43284;47.042;15.498;2022-09-29T06:26:13;3.13;;;0.80;;
57441;SDS011;43284;47.042;15.498;2022-09-29T06:28:42;1.55;;;0.98;;
57441;SDS011;43284;47.042;15.498;2022-09-29T06:31:11;2.50;;;1.00;;
57441;SDS011;43284;47.042;15.498;2022-09-29T06:33:40;3.80;;;1.20;;
57441;SDS011;43284;47.042;15.498;2022-09-29T06:36:10;4.97;;;1.40;;
57441;SDS011;43284;47.042;15.498;2022-09-29T06:39:06;4.32;;;1.67;;
57441;SDS011;43284;47.042;15.498;2022-09-29T06:41:45;2.03;;;1.52;;
57441;SDS011;43284;47.042;15.498;2022-09-29T06:44:21;3.67;;;1.58;;
57441;SDS011;43284;47.042;15.498;2022-09-29T06:46:50;5.70;;;2.38;;
57441;SDS011;43284;47.042;15.498;2022-09-29T06:49:17;4.60;;;2.00;;
57441;SDS011;43284;47.042;15.498;2022-09-29T06:51:46;4.43;;;1.48;;
57441;SDS011;43284;47.042;15.498;2022-09-29T06:54:14;1.58;;;1.45;;
57441;SDS011;43284;47.042;15.498;2022-09-29T06:56:51;2.10;;;1.50;;
57441;SDS011;43284;47.042;15.498;2022-09-29T06:59:21;3.00;;;1.80;;
57441;SDS011;43284;47.042;15.498;2022-09-29T07:01:50;3.92;;;1.98;;
57441;SDS011;43284;47.042;15.498;2022-09-29T07:04:18;1.95;;;1.35;;
57441;SDS011;43284;47.042;15.498;2022-09-29T07:06:47;4.40;;;1.40;;
57441;SDS011;43284;47.042;15.498;2022-09-29T07:09:15;4.55;;;1.10;;
57441;SDS011;43284;47.042;15.498;2022-09-29T07:11:43;1.85;;;1.40;;
57441;SDS011;43284;47.042;15.498;2022-09-29T07:14:15;2.10;;;1.13;;
57441;SDS011;43284;47.042;15.498;2022-09-29T07:16:48;1.30;;;0.93;;
57441;SDS011;43284;47.042;15.498;2022-09-29T07:19:16;4.20;;;0.95;;
57441;SDS011;43284;47.042;15.498;2022-09-29T07:21:47;0.85;;;0.80;;
57441;SDS011;43284;47.042;15.498;2022-09-29T07:24:14;0.60;;;0.60;;
57441;SDS011;43284;47.042;15.498;2022-09-29T07:26:42;1.13;;;0.77;;
57441;SDS011;43284;47.042;15.498;2022-09-29T07:29:09;2.38;;;1.00;;
57441;SDS011;43284;47.042;15.498;2022-09-29T07:31:37;2.75;;;1.30;;
57441;SDS011;43284;47.042;15.498;2022-09-29T07:34:05;1.98;;;1.45;;
57441;SDS011;43284;47.042;15.498;2022-09-29T07:36:32;3.97;;;2.45;;
57441;SDS011;43284;47.042;15.498;2022-09-29T07:39:04;2.13;;;1.30;;
57441;SDS011;43284;47.042;15.498;2022-09-29T07:41:31;2.13;;;1.60;;
57441;SDS011;43284;47.042;15.498;2022-09-29T07:43:58;4.28;;;1.35;;
57441;SDS011;43284;47.042;15.498;2022-09-29T07:46:26;1.80;;;1.38;;
57441;SDS011;43284;47.042;15.498;2022-09-29T07:48:54;1.25;;;1.08;;
57441;SDS011;43284;47.042;15.498;2022-09-29T07:51:21;2.22;;;1.10;;
57441;SDS011;43284;47.042;15.498;2022-09-29T07:53:48;1.05;;;0.80;;
57441;SDS011;43284;47.042;15.498;2022-09-29T07:56:17;1.58;;;0.70;;
57441;SDS011;43284;47.042;15.498;2022-09-29T07:58:46;1.30;;;0.88;;
57441;SDS011;43284;47.042;15.498;2022-09-29T08:01:18;0.98;;;0.77;;
57441;SDS011;43284;47.042;15.498;2022-09-29T08:03:50;1.65;;;0.57;;
57441;SDS011;43284;47.042;15.498;2022-09-29T08:08:47;0.88;;;0.68;;
57441;SDS011;43284;47.042;15.498;2022-09-29T08:11:16;0.52;;;0.50;;
57441;SDS011;43284;47.042;15.498;2022-09-29T08:13:52;1.70;;;0.70;;
57441;SDS011;43284;47.042;15.498;2022-09-29T08:16:19;1.92;;;0.70;;
57441;SDS011;43284;47.042;15.498;2022-09-29T08:18:46;0.52;;;0.50;;
57441;SDS011;43284;47.042;15.498;2022-09-29T08:21:15;0.80;;;0.73;;
57441;SDS011;43284;47.042;15.498;2022-09-29T08:23:42;1.65;;;0.70;;
57441;SDS011;43284;47.042;15.498;2022-09-29T08:26:11;0.60;;;0.57;;
57441;SDS011;43284;47.042;15.498;2022-09-29T08:28:43;1.40;;;0.65;;
57441;SDS011;43284;47.042;15.498;2022-09-29T08:31:18;1.55;;;0.45;;
57441;SDS011;43284;47.042;15.498;2022-09-29T08:36:15;1.85;;;0.70;;
57441;SDS011;43284;47.042;15.498;2022-09-29T08:38:49;1.23;;;0.75;;
57441;SDS011;43284;47.042;15.498;2022-09-29T08:44:13;0.85;;;0.60;;
57441;SDS011;43284;47.042;15.498;2022-09-29T08:46:47;1.33;;;0.70;;
57441;SDS011;43284;47.042;15.498;2022-09-29T08:49:22;2.08;;;0.80;;
57441;SDS011;43284;47.042;15.498;2022-09-29T08:51:57;1.98;;;1.00;;
57441;SDS011;43284;47.042;15.498;2022-09-29T08:54:41;0.70;;;0.70;;
57441;SDS011;43284;47.042;15.498;2022-09-29T08:57:14;0.83;;;0.77;;
57441;SDS011;43284;47.042;15.498;2022-09-29T08:59:54;2.28;;;0.80;;
57441;SDS011;43284;47.042;15.498;2022-09-29T09:02:32;0.80;;;0.80;;
57441;SDS011;43284;47.042;15.498;2022-09-29T09:14:02;7.85;;;3.15;;
57441;SDS011;43284;47.042;15.498;2022-09-29T09:16:59;6.20;;;2.85;;
57441;SDS011;43284;47.042;15.498;2022-09-29T09:22:41;7.95;;;3.50;;
57441;SDS011;43284;47.042;15.498;2022-09-29T09:28:04;12.93;;;5.47;;
57441;SDS011;43284;47.042;15.498;2022-09-29T09:31:03;8.25;;;3.15;;
57441;SDS011;43284;47.042;15.498;2022-09-29T09:34:06;7.65;;;2.78;;
57441;SDS011;43284;47.042;15.498;2022-09-29T09:37:15;5.85;;;2.75;;
57441;SDS011;43284;47.042;15.498;2022-09-29T09:39:55;2.83;;;1.80;;
57441;SDS011;43284;47.042;15.498;2022-09-29T09:42:33;7.15;;;3.55;;
57441;SDS011;43284;47.042;15.498;2022-09-29T09:45:17;3.17;;;1.42;;
57441;SDS011;43284;47.042;15.498;2022-09-29T09:48:04;2.80;;;1.48;;
57441;SDS011;43284;47.042;15.498;2022-09-29T09:50:51;2.17;;;1.45;;
57441;SDS011;43284;47.042;15.498;2022-09-29T09:59:23;1.70;;;1.45;;
57441;SDS011;43284;47.042;15.498;2022-09-29T10:02:04;4.13;;;2.00;;
57441;SDS011;43284;47.042;15.498;2022-09-29T10:04:40;2.15;;;1.85;;
57441;SDS011;43284;47.042;15.498;2022-09-29T10:07:09;2.83;;;1.60;;
57441;SDS011;43284;47.042;15.498;2022-09-29T10:09:37;2.63;;;1.83;;
57441;SDS011;43284;47.042;15.498;2022-09-29T10:12:07;3.22;;;1.70;;
57441;SDS011;43284;47.042;15.498;2022-09-29T10:14:47;2.20;;;1.45;;
57441;SDS011;43284;47.042;15.498;2022-09-29T10:18:09;4.93;;;1.90;;
57441;SDS011;43284;47.042;15.498;2022-09-29T10:20:43;1.77;;;1.60;;
57441;SDS011;43284;47.042;15.498;2022-09-29T10:23:27;2.47;;;1.10;;
57441;SDS011;43284;47.042;15.498;2022-09-29T10:26:15;2.38;;;1.08;;
57441;SDS011;43284;47.042;15.498;2022-09-29T10:28:56;1.90;;;1.20;;
57441;SDS011;43284;47.042;15.498;2022-09-29T10:31:30;2.75;;;0.93;;
57441;SDS011;43284;47.042;15.498;2022-09-29T10:34:02;2.67;;;1.17;;
57441;SDS011;43284;47.042;15.498;2022-09-29T10:36:45;1.42;;;1.10;;
57441;SDS011;43284;47.042;15.498;2022-09-29T10:47:44;2.05;;;1.27;;
57441;SDS011;43284;47.042;15.498;2022-09-29T10:53:34;10.00;;;1.33;;
57441;SDS011;43284;47.042;15.498;2022-09-29T10:55:54;3.60;;;1.15;;
57441;SDS011;43284;47.042;15.498;2022-09-29T10:58:28;1.30;;;1.20;;
57441;SDS011;43284;47.042;15.498;2022-09-29T11:01:04;1.17;;;0.90;;
57441;SDS011;43284;47.042;15.498;2022-09-29T11:03:44;2.95;;;1.42;;
57441;SDS011;43284;47.042;15.498;2022-09-29T11:06:13;2.08;;;1.30;;
57441;SDS011;43284;47.042;15.498;2022-09-29T11:14:25;5.75;;;2.65;;
57441;SDS011;43284;47.042;15.498;2022-09-29T11:20:00;10.23;;;3.58;;
57441;SDS011;43284;47.042;15.498;2022-09-29T11:25:28;6.68;;;2.17;;
57441;SDS011;43284;47.042;15.498;2022-09-29T11:31:28;3.83;;;1.67;;
57441;SDS011;43284;47.042;15.498;2022-09-29T11:34:25;2.70;;;1.40;;
57441;SDS011;43284;47.042;15.498;2022-09-29T11:45:03;4.22;;;1.90;;
57441;SDS011;43284;47.042;15.498;2022-09-29T11:56:18;1.85;;;1.27;;
57441;SDS011;43284;47.042;15.498;2022-09-29T11:58:55;1.15;;;0.90;;
57441;SDS011;43284;47.042;15.498;2022-09-29T12:01:53;2.17;;;0.93;;
57441;SDS011;43284;47.042;15.498;2022-09-29T12:07:50;2.25;;;0.95;;
57441;SDS011;43284;47.042;15.498;2022-09-29T12:13:24;1.65;;;1.00;;
57441;SDS011;43284;47.042;15.498;2022-09-29T12:16:16;1.23;;;1.05;;
57441;SDS011;43284;47.042;15.498;2022-09-29T12:21:46;1.05;;;0.90;;
57441;SDS011;43284;47.042;15.498;2022-09-29T12:24:21;1.85;;;0.90;;
57441;SDS011;43284;47.042;15.498;2022-09-29T12:27:27;1.73;;;1.00;;
57441;SDS011;43284;47.042;15.498;2022-09-29T12:30:04;1.23;;;0.95;;
57441;SDS011;43284;47.042;15.498;2022-09-29T12:33:00;3.10;;;1.00;;
57441;SDS011;43284;47.042;15.498;2022-09-29T12:38:34;1.92;;;1.35;;
57441;SDS011;43284;47.042;15.498;2022-09-29T12:46:26;3.05;;;2.05;;
57441;SDS011;43284;47.042;15.498;2022-09-29T12:52:25;4.32;;;2.50;;
57441;SDS011;43284;47.042;15.498;2022-09-29T12:55:00;6.70;;;3.35;;
57441;SDS011;43284;47.042;15.498;2022-09-29T12:57:34;3.75;;;1.92;;
57441;SDS011;43284;47.042;15.498;2022-09-29T13:00:08;3.83;;;2.20;;
57441;SDS011;43284;47.042;15.498;2022-09-29T13:08:24;2.83;;;1.50;;
57441;SDS011;43284;47.042;15.498;2022-09-29T13:11:10;4.03;;;1.83;;
57441;SDS011;43284;47.042;15.498;2022-09-29T13:14:22;3.90;;;1.55;;
57441;SDS011;43284;47.042;15.498;2022-09-29T13:17:20;2.10;;;1.50;;
57441;SDS011;43284;47.042;15.498;2022-09-29T13:20:14;4.75;;;1.48;;
57441;SDS011;43284;47.042;15.498;2022-09-29T13:23:16;2.05;;;1.63;;
57441;SDS011;43284;47.042;15.498;2022-09-29T13:28:37;2.03;;;1.58;;
57441;SDS011;43284;47.042;15.498;2022-09-29T13:31:14;1.70;;;1.60;;
57441;SDS011;43284;47.042;15.498;2022-09-29T13:33:47;2.85;;;1.80;;
57441;SDS011;43284;47.042;15.498;2022-09-29T13:36:34;2.47;;;1.83;;
57441;SDS011;43284;47.042;15.498;2022-09-29T13:39:16;2.20;;;1.58;;
57441;SDS011;43284;47.042;15.498;2022-09-29T13:41:54;8.05;;;1.80;;
57441;SDS011;43284;47.042;15.498;2022-09-29T13:44:24;2.25;;;1.90;;
57441;SDS011;43284;47.042;15.498;2022-09-29T13:46:53;2.03;;;1.60;;
57441;SDS011;43284;47.042;15.498;2022-09-29T13:49:22;2.38;;;1.58;;
57441;SDS011;43284;47.042;15.498;2022-09-29T13:51:53;2.15;;;1.75;;
57441;SDS011;43284;47.042;15.498;2022-09-29T13:54:33;1.45;;;1.30;;
57441;SDS011;43284;47.042;15.498;2022-09-29T13:57:06;4.32;;;1.80;;
57441;SDS011;43284;47.042;15.498;2022-09-29T14:02:36;3.13;;;2.13;;
57441;SDS011;43284;47.042;15.498;2022-09-29T14:13:00;4.93;;;2.10;;
57441;SDS011;43284;47.042;15.498;2022-09-29T14:15:34;3.35;;;2.25;;
57441;SDS011;43284;47.042;15.498;2022-09-29T14:18:12;2.72;;;1.90;;
57441;SDS011;43284;47.042;15.498;2022-09-29T14:20:57;3.60;;;1.95;;
57441;SDS011;43284;47.042;15.498;2022-09-29T14:23:58;2.80;;;2.17;;
57441;SDS011;43284;47.042;15.498;2022-09-29T14:29:29;2.70;;;2.08;;
57441;SDS011;43284;47.042;15.498;2022-09-29T14:32:01;3.10;;;2.10;;
57441;SDS011;43284;47.042;15.498;2022-09-29T14:34:30;6.18;;;2.95;;
57441;SDS011;43284;47.042;15.498;2022-09-29T14:37:00;3.00;;;2.42;;
57441;SDS011;43284;47.042;15.498;2022-09-29T14:39:28;4.72;;;2.80;;
57441;SDS011;43284;47.042;15.498;2022-09-29T14:41:57;5.30;;;2.97;;
57441;SDS011;43284;47.042;15.498;2022-09-29T14:44:27;3.75;;;3.10;;
57441;SDS011;43284;47.042;15.498;2022-09-29T14:56:20;5.30;;;3.22;;
57441;SDS011;43284;47.042;15.498;2022-09-29T15:02:24;6.43;;;3.53;;
57441;SDS011;43284;47.042;15.498;2022-09-29T15:04:56;4.78;;;3.47;;
57441;SDS011;43284;47.042;15.498;2022-09-29T15:07:25;7.72;;;3.60;;
57441;SDS011;43284;47.042;15.498;2022-09-29T15:09:54;6.97;;;3.95;;
57441;SDS011;43284;47.042;15.498;2022-09-29T15:12:24;6.43;;;3.85;;
57441;SDS011;43284;47.042;15.498;2022-09-29T15:14:53;5.28;;;3.80;;
57441;SDS011;43284;47.042;15.498;2022-09-29T15:26:01;5.18;;;3.78;;
57441;SDS011;43284;47.042;15.498;2022-09-29T15:28:35;7.45;;;4.35;;
57441;SDS011;43284;47.042;15.498;2022-09-29T15:31:05;7.15;;;3.90;;
57441;SDS011;43284;47.042;15.498;2022-09-29T15:33:38;9.35;;;4.50;;
57441;SDS011;43284;47.042;15.498;2022-09-29T15:36:16;8.43;;;5.50;;
57441;SDS011;43284;47.042;15.498;2022-09-29T15:38:52;14.15;;;7.00;;
57441;SDS011;43284;47.042;15.498;2022-09-29T15:41:38;25.60;;;9.48;;
57441;SDS011;43284;47.042;15.498;2022-09-29T15:44:14;13.52;;;7.57;;
57441;SDS011;43284;47.042;15.498;2022-09-29T15:46:49;10.65;;;6.30;;
57441;SDS011;43284;47.042;15.498;2022-09-29T15:49:23;7.13;;;4.38;;
57441;SDS011;43284;47.042;15.498;2022-09-29T15:51:58;6.85;;;4.72;;
57441;SDS011;43284;47.042;15.498;2022-09-29T15:54:32;8.00;;;4.95;;
57441;SDS011;43284;47.042;15.498;2022-09-29T16:02:50;7.80;;;4.85;;
57441;SDS011;43284;47.042;15.498;2022-09-29T16:05:29;8.32;;;4.90;;
57441;SDS011;43284;47.042;15.498;2022-09-29T16:08:06;6.85;;;5.00;;
57441;SDS011;43284;47.042;15.498;2022-09-29T16:10:40;8.43;;;4.90;;
57441;SDS011;43284;47.042;15.498;2022-09-29T16:13:18;9.10;;;5.32;;
57441;SDS011;43284;47.042;15.498;2022-09-29T16:15:55;11.35;;;5.05;;
57441;SDS011;43284;47.042;15.498;2022-09-29T16:20:57;8.05;;;4.40;;
57441;SDS011;43284;47.042;15.498;2022-09-29T16:23:40;7.70;;;4.57;;
57441;SDS011;43284;47.042;15.498;2022-09-29T16:26:37;6.32;;;4.40;;
57441;SDS011;43284;47.042;15.498;2022-09-29T16:31:46;8.45;;;5.03;;
57441;SDS011;43284;47.042;15.498;2022-09-29T16:36:49;9.20;;;5.30;;
57441;SDS011;43284;47.042;15.498;2022-09-29T16:39:20;7.80;;;5.15;;
57441;SDS011;43284;47.042;15.498;2022-09-29T16:41:50;12.60;;;7.30;;
57441;SDS011;43284;47.042;15.498;2022-09-29T16:44:27;10.05;;;6.18;;
57441;SDS011;43284;47.042;15.498;2022-09-29T16:47:17;8.90;;;6.53;;
57441;SDS011;43284;47.042;15.498;2022-09-29T16:49:59;9.18;;;6.97;;
57441;SDS011;43284;47.042;15.498;2022-09-29T16:52:48;7.97;;;6.10;;
57441;SDS011;43284;47.042;15.498;2022-09-29T16:55:24;10.95;;;6.55;;
57441;SDS011;43284;47.042;15.498;2022-09-29T16:57:54;9.38;;;6.07;;
57441;SDS011;43284;47.042;15.498;2022-09-29T17:00:24;9.10;;;5.70;;
57441;SDS011;43284;47.042;15.498;2022-09-29T17:02:55;8.70;;;6.30;;
57441;SDS011;43284;47.042;15.498;2022-09-29T17:05:23;7.75;;;4.68;;
57441;SDS011;43284;47.042;15.498;2022-09-29T17:08:00;13.40;;;7.43;;
57441;SDS011;43284;47.042;15.498;2022-09-29T17:10:29;12.27;;;6.90;;
57441;SDS011;43284;47.042;15.498;2022-09-29T17:12:57;9.57;;;6.47;;
57441;SDS011;43284;47.042;15.498;2022-09-29T17:15:26;9.30;;;6.50;;
57441;SDS011;43284;47.042;15.498;2022-09-29T17:17:55;8.38;;;5.57;;
57441;SDS011;43284;47.042;15.498;2022-09-29T17:20:23;11.63;;;6.47;;
57441;SDS011;43284;47.042;15.498;2022-09-29T17:22:54;9.25;;;6.45;;
57441;SDS011;43284;47.042;15.498;2022-09-29T17:25:24;8.27;;;6.28;;
57441;SDS011;43284;47.042;15.498;2022-09-29T17:27:51;10.43;;;7.53;;
57441;SDS011;43284;47.042;15.498;2022-09-29T17:30:37;11.43;;;7.32;;
57441;SDS011;43284;47.042;15.498;2022-09-29T17:33:05;10.35;;;7.45;;
57441;SDS011;43284;47.042;15.498;2022-09-29T17:35:39;10.65;;;7.15;;
57441;SDS011;43284;47.042;15.498;2022-09-29T17:38:09;10.18;;;7.20;;
57441;SDS011;43284;47.042;15.498;2022-09-29T17:40:42;11.63;;;7.88;;
57441;SDS011;43284;47.042;15.498;2022-09-29T17:43:21;18.50;;;7.57;;
57441;SDS011;43284;47.042;15.498;2022-09-29T17:45:50;17.15;;;8.52;;
57441;SDS011;43284;47.042;15.498;2022-09-29T17:48:21;13.23;;;8.00;;
57441;SDS011;43284;47.042;15.498;2022-09-29T17:50:50;13.52;;;8.98;;
57441;SDS011;43284;47.042;15.498;2022-09-29T17:53:24;12.25;;;8.70;;
57441;SDS011;43284;47.042;15.498;2022-09-29T17:55:52;11.23;;;7.40;;
57441;SDS011;43284;47.042;15.498;2022-09-29T17:58:22;13.85;;;8.27;;
57441;SDS011;43284;47.042;15.498;2022-09-29T18:00:50;11.18;;;7.63;;
57441;SDS011;43284;47.042;15.498;2022-09-29T18:03:19;12.43;;;8.32;;
57441;SDS011;43284;47.042;15.498;2022-09-29T18:05:48;14.10;;;9.18;;
57441;SDS011;43284;47.042;15.498;2022-09-29T18:08:25;12.32;;;8.68;;